createdAt,value
2018-08-06T00:00:41.546Z,2.13
2018-08-06T00:03:10.222Z,1.40
2018-08-06T00:05:38.626Z,1.33
2018-08-06T00:08:07.531Z,1.70
2018-08-06T00:10:35.930Z,1.80
2018-08-06T00:13:04.355Z,1.97
2018-08-06T00:15:32.719Z,1.50
2018-08-06T00:18:01.114Z,1.63
2018-08-06T00:20:29.493Z,1.63
2018-08-06T00:22:57.901Z,1.90
2018-08-06T00:25:26.274Z,2.00
2018-08-06T00:27:54.673Z,1.87
2018-08-06T00:30:23.062Z,2.93
2018-08-06T00:32:51.622Z,2.10
2018-08-06T00:35:20.189Z,1.97
2018-08-06T00:37:48.599Z,2.00
2018-08-06T00:40:18.683Z,2.00
2018-08-06T00:42:47.706Z,1.97
2018-08-06T00:45:18.139Z,1.80
2018-08-06T00:47:47.018Z,1.90
2018-08-06T00:50:15.398Z,1.80
2018-08-06T00:52:43.800Z,1.80
2018-08-06T00:55:14.382Z,1.97
2018-08-06T00:57:43.102Z,2.23
2018-08-06T01:00:13.856Z,1.80
2018-08-06T01:02:42.276Z,2.50
2018-08-06T01:05:11.911Z,2.00
2018-08-06T01:07:40.577Z,2.20
2018-08-06T01:10:11.802Z,1.97
2018-08-06T01:12:40.822Z,1.97
2018-08-06T01:15:10.910Z,2.00
2018-08-06T01:17:39.295Z,2.00
2018-08-06T01:20:09.398Z,2.30
2018-08-06T01:22:37.926Z,2.60
2018-08-06T01:25:06.743Z,2.87
2018-08-06T01:27:35.714Z,1.90
2018-08-06T01:30:04.429Z,2.10
2018-08-06T01:32:32.809Z,2.70
2018-08-06T01:35:01.278Z,2.20
2018-08-06T01:37:29.646Z,2.33
2018-08-06T01:39:58.038Z,1.83
2018-08-06T01:42:26.403Z,2.00
2018-08-06T01:44:54.797Z,2.20
2018-08-06T01:47:23.162Z,2.73
2018-08-06T01:49:51.562Z,3.20
2018-08-06T01:52:19.938Z,2.83
2018-08-06T01:54:48.334Z,2.63
2018-08-06T01:57:16.707Z,2.40
2018-08-06T01:59:45.106Z,2.17
2018-08-06T02:02:13.473Z,3.53
2018-08-06T02:04:41.875Z,2.43
2018-08-06T02:07:10.386Z,2.70
2018-08-06T02:09:38.993Z,2.43
2018-08-06T02:12:07.760Z,2.13
2018-08-06T02:14:36.193Z,2.87
2018-08-06T02:17:04.575Z,2.97
2018-08-06T02:19:32.974Z,2.53
2018-08-06T02:22:01.353Z,2.00
2018-08-06T02:24:29.810Z,2.37
2018-08-06T02:26:58.190Z,2.43
2018-08-06T02:29:26.582Z,2.27
2018-08-06T02:31:55.010Z,2.73
2018-08-06T02:34:23.458Z,3.30
2018-08-06T02:36:51.834Z,2.60
2018-08-06T02:39:20.250Z,3.43
2018-08-06T02:41:48.631Z,2.70
2018-08-06T02:44:17.037Z,2.70
2018-08-06T02:46:45.421Z,2.90
2018-08-06T02:49:13.823Z,3.53
2018-08-06T02:51:42.240Z,2.90
2018-08-06T02:54:10.637Z,2.90
2018-08-06T02:56:39.082Z,3.37
2018-08-06T02:59:07.513Z,3.30
2018-08-06T03:01:35.902Z,2.67
2018-08-06T03:04:04.304Z,3.30
2018-08-06T03:06:32.686Z,3.10
2018-08-06T03:09:01.102Z,2.80
2018-08-06T03:11:29.505Z,3.07
2018-08-06T03:13:57.886Z,3.40
2018-08-06T03:16:26.286Z,3.53
2018-08-06T03:18:54.806Z,2.50
2018-08-06T03:21:23.198Z,4.10
2018-08-06T03:23:51.590Z,3.80
2018-08-06T03:26:20.004Z,3.37
2018-08-06T03:28:48.395Z,2.97
2018-08-06T03:31:16.790Z,3.43
2018-08-06T03:33:45.172Z,3.50
2018-08-06T03:36:13.570Z,3.90
2018-08-06T03:38:41.954Z,3.80
2018-08-06T03:41:10.358Z,3.77
2018-08-06T03:43:38.734Z,3.50
2018-08-06T03:46:07.146Z,3.50
2018-08-06T03:48:35.521Z,3.30
2018-08-06T03:51:03.914Z,3.20
2018-08-06T03:53:32.291Z,3.60
2018-08-06T03:56:00.714Z,2.83
2018-08-06T03:58:29.098Z,3.20
2018-08-06T04:00:57.500Z,3.40
2018-08-06T04:03:25.892Z,4.33
2018-08-06T04:05:54.291Z,3.10
2018-08-06T04:08:22.693Z,3.30
2018-08-06T04:10:51.115Z,3.30
2018-08-06T04:13:19.490Z,3.50
2018-08-06T04:15:47.878Z,3.50
2018-08-06T04:18:16.250Z,3.50
2018-08-06T04:20:44.641Z,3.80
2018-08-06T04:23:13.019Z,2.70
2018-08-06T04:25:41.437Z,3.40
2018-08-06T04:28:09.851Z,2.93
2018-08-06T04:30:38.358Z,3.60
2018-08-06T04:33:06.798Z,3.67
2018-08-06T04:35:35.166Z,2.87
2018-08-06T04:38:03.656Z,3.40
2018-08-06T04:40:32.050Z,3.77
2018-08-06T04:43:00.422Z,3.37
2018-08-06T04:45:28.840Z,4.00
2018-08-06T04:47:57.210Z,3.20
2018-08-06T04:50:25.614Z,3.50
2018-08-06T04:52:53.998Z,3.37
2018-08-06T04:55:22.421Z,3.90
2018-08-06T04:57:50.806Z,3.17
2018-08-06T05:00:19.207Z,3.40
2018-08-06T05:02:47.587Z,3.40
2018-08-06T05:05:15.994Z,3.60
2018-08-06T05:07:44.457Z,3.60
2018-08-06T05:10:12.858Z,3.50
2018-08-06T05:12:41.271Z,3.67
2018-08-06T05:15:09.664Z,3.40
2018-08-06T05:17:38.059Z,2.63
2018-08-06T05:20:06.435Z,3.10
2018-08-06T05:22:34.830Z,3.40
2018-08-06T05:25:03.218Z,3.60
2018-08-06T05:27:31.605Z,4.00
2018-08-06T05:29:59.979Z,3.97
2018-08-06T05:32:30.102Z,3.50
2018-08-06T05:34:58.478Z,3.10
2018-08-06T05:37:26.870Z,2.80
2018-08-06T05:39:55.269Z,2.43
2018-08-06T05:42:23.699Z,2.40
2018-08-06T05:44:52.082Z,3.07
2018-08-06T05:47:20.623Z,2.60
2018-08-06T05:49:48.989Z,2.60
2018-08-06T05:52:17.391Z,2.77
2018-08-06T05:54:45.767Z,2.00
2018-08-06T05:57:14.194Z,2.17
2018-08-06T05:59:42.566Z,2.20
2018-08-06T06:02:10.979Z,2.40
2018-08-06T06:04:39.368Z,2.40
2018-08-06T06:07:07.790Z,2.23
2018-08-06T06:09:36.162Z,2.10
2018-08-06T06:12:04.703Z,2.77
2018-08-06T06:14:33.090Z,2.10
2018-08-06T06:17:01.498Z,2.77
2018-08-06T06:19:29.871Z,2.20
2018-08-06T06:21:58.303Z,2.47
2018-08-06T06:24:26.743Z,2.80
2018-08-06T06:26:55.142Z,2.17
2018-08-06T06:29:23.522Z,2.03
2018-08-06T06:31:51.930Z,2.07
2018-08-06T06:34:20.312Z,2.37
2018-08-06T06:36:48.705Z,2.27
2018-08-06T06:39:17.083Z,1.80
2018-08-06T06:41:45.490Z,2.07
2018-08-06T06:44:13.869Z,1.97
2018-08-06T06:46:42.274Z,2.70
2018-08-06T06:49:10.984Z,2.07
2018-08-06T06:51:39.353Z,2.13
2018-08-06T06:54:07.769Z,2.00
2018-08-06T06:56:36.165Z,3.03
2018-08-06T06:59:04.565Z,1.80
2018-08-06T07:01:32.984Z,1.80
2018-08-06T07:04:01.354Z,1.80
2018-08-06T07:06:29.799Z,2.43
2018-08-06T07:08:58.170Z,1.60
2018-08-06T07:11:26.566Z,1.57
2018-08-06T07:13:55.070Z,1.60
2018-08-06T07:16:23.426Z,1.50
2018-08-06T07:18:51.881Z,1.33
2018-08-06T07:21:20.263Z,1.70
2018-08-06T07:23:48.679Z,1.43
2018-08-06T07:26:17.046Z,1.70
2018-08-06T07:28:45.476Z,1.70
2018-08-06T07:31:13.889Z,1.40
2018-08-06T07:33:42.315Z,1.67
2018-08-06T07:36:10.711Z,1.77
2018-08-06T07:38:39.131Z,1.33
2018-08-06T07:41:07.507Z,1.13
2018-08-06T07:43:35.925Z,1.50
2018-08-06T07:46:04.401Z,1.53
2018-08-06T07:48:32.798Z,1.30
2018-08-06T07:51:01.232Z,1.40
2018-08-06T07:53:29.630Z,1.93
2018-08-06T07:55:58.021Z,1.30
2018-08-06T07:58:26.415Z,1.57
2018-08-06T08:00:54.798Z,1.83
2018-08-06T08:03:23.194Z,1.73
2018-08-06T08:05:51.624Z,1.67
2018-08-06T08:08:20.027Z,1.47
2018-08-06T08:10:48.443Z,1.07
2018-08-06T08:13:16.846Z,1.40
2018-08-06T08:15:45.320Z,1.30
2018-08-06T08:18:13.748Z,1.60
2018-08-06T08:20:42.154Z,1.20
2018-08-06T08:23:10.570Z,1.30
2018-08-06T08:25:38.951Z,1.23
2018-08-06T08:28:07.391Z,1.70
2018-08-06T08:30:35.759Z,1.60
2018-08-06T08:33:04.162Z,1.57
2018-08-06T08:35:33.286Z,1.27
2018-08-06T08:38:01.797Z,1.73
2018-08-06T08:40:30.194Z,1.50
2018-08-06T08:42:58.594Z,1.40
2018-08-06T08:45:27.058Z,1.17
2018-08-06T08:47:55.450Z,1.47
2018-08-06T08:50:23.826Z,1.40
2018-08-06T08:52:52.237Z,1.20
2018-08-06T08:55:21.191Z,1.27
2018-08-06T08:57:49.595Z,1.77
2018-08-06T09:00:20.773Z,1.27
2018-08-06T09:02:49.887Z,1.13
2018-08-06T09:05:18.981Z,1.13
2018-08-06T09:07:47.822Z,1.27
2018-08-06T09:10:17.137Z,0.90
2018-08-06T09:12:45.674Z,0.87
2018-08-06T09:15:21.510Z,1.30
2018-08-06T09:17:49.886Z,0.93
2018-08-06T09:20:18.320Z,1.43
2018-08-06T09:22:47.134Z,1.20
2018-08-06T09:25:15.851Z,1.40
2018-08-06T09:27:47.586Z,1.33
2018-08-06T09:30:25.206Z,1.30
2018-08-06T09:32:54.881Z,1.20
2018-08-06T09:35:23.494Z,1.00
2018-08-06T09:37:52.555Z,1.40
2018-08-06T09:40:22.003Z,1.30
2018-08-06T09:42:50.962Z,1.37
2018-08-06T09:45:20.494Z,1.20
2018-08-06T09:47:50.293Z,1.47
2018-08-06T09:50:19.511Z,1.00
2018-08-06T09:52:48.878Z,1.10
2018-08-06T09:55:20.562Z,1.10
2018-08-06T09:57:49.670Z,1.17
2018-08-06T10:00:24.604Z,1.40
2018-08-06T10:02:53.771Z,1.00
2018-08-06T10:05:23.190Z,1.20
2018-08-06T10:07:51.602Z,1.17
2018-08-06T10:10:20.022Z,0.90
2018-08-06T10:12:48.510Z,1.00
2018-08-06T10:15:17.222Z,0.93
2018-08-06T10:17:46.497Z,1.07
2018-08-06T10:20:17.162Z,0.97
2018-08-06T10:22:45.598Z,1.23
2018-08-06T10:25:14.839Z,1.00
2018-08-06T10:27:44.106Z,0.80
2018-08-06T10:30:14.121Z,0.93
2018-08-06T10:32:42.658Z,0.80
2018-08-06T10:35:12.446Z,1.47
2018-08-06T10:37:40.852Z,1.63
2018-08-06T10:40:12.279Z,1.10
2018-08-06T10:42:41.255Z,0.80
2018-08-06T10:45:13.338Z,0.90
2018-08-06T10:47:42.206Z,1.00
2018-08-06T10:50:10.815Z,1.43
2018-08-06T10:52:39.197Z,1.20
2018-08-06T10:55:08.898Z,1.47
2018-08-06T10:57:37.770Z,0.97
2018-08-06T11:00:15.226Z,0.87
2018-08-06T11:02:43.795Z,1.30
2018-08-06T11:05:13.482Z,1.40
2018-08-06T11:07:41.863Z,1.00
2018-08-06T11:10:13.258Z,1.20
2018-08-06T11:12:41.650Z,1.27
2018-08-06T11:15:13.223Z,1.10
2018-08-06T11:17:41.619Z,1.20
2018-08-06T11:20:11.907Z,1.27
2018-08-06T11:22:40.715Z,1.00
2018-08-06T11:25:11.498Z,0.90
2018-08-06T11:27:39.902Z,1.47
2018-08-06T11:30:16.120Z,1.40
2018-08-06T11:32:44.880Z,1.33
2018-08-06T11:35:13.994Z,1.20
2018-08-06T11:37:42.654Z,1.33
2018-08-06T11:40:12.498Z,1.30
2018-08-06T11:42:41.782Z,1.27
2018-08-06T11:45:12.226Z,1.90
2018-08-06T11:47:40.606Z,1.40
2018-08-06T11:50:09.698Z,1.27
2018-08-06T11:52:38.086Z,1.07
2018-08-06T11:55:07.171Z,1.30
2018-08-06T11:57:35.587Z,1.20
2018-08-06T12:00:06.631Z,1.37
2018-08-06T12:02:35.006Z,1.20
2018-08-06T12:05:03.512Z,1.00
2018-08-06T12:07:31.910Z,1.93
2018-08-06T12:10:00.309Z,1.20
2018-08-06T12:12:28.710Z,1.27
2018-08-06T12:14:57.131Z,1.07
2018-08-06T12:17:25.515Z,1.10
2018-08-06T12:19:53.894Z,1.27
2018-08-06T12:22:22.294Z,1.10
2018-08-06T12:24:50.687Z,1.27
2018-08-06T12:27:19.144Z,1.20
2018-08-06T12:29:47.494Z,1.33
2018-08-06T12:32:15.898Z,1.30
2018-08-06T12:34:44.512Z,1.13
2018-08-06T12:37:12.935Z,1.23
2018-08-06T12:39:41.327Z,1.30
2018-08-06T12:42:09.776Z,1.10
2018-08-06T12:44:38.166Z,1.10
2018-08-06T12:47:06.614Z,1.00
2018-08-06T12:49:34.997Z,1.40
2018-08-06T12:52:03.394Z,1.20
2018-08-06T12:54:31.806Z,1.13
2018-08-06T12:57:00.228Z,0.83
2018-08-06T12:59:28.606Z,1.00
2018-08-06T13:01:57.013Z,1.10
2018-08-06T13:04:25.398Z,1.60
2018-08-06T13:06:53.917Z,1.70
2018-08-06T13:09:22.310Z,1.50
2018-08-06T13:11:50.731Z,1.10
2018-08-06T13:14:19.112Z,1.30
2018-08-06T13:16:47.537Z,1.30
2018-08-06T13:19:15.915Z,1.17
2018-08-06T13:21:44.306Z,1.13
2018-08-06T13:24:12.686Z,0.80
2018-08-06T13:26:41.090Z,0.97
2018-08-06T13:29:09.474Z,1.23
2018-08-06T13:31:37.883Z,1.23
2018-08-06T13:34:06.287Z,1.20
2018-08-06T13:36:34.696Z,1.07
2018-08-06T13:39:03.119Z,1.30
2018-08-06T13:41:31.548Z,0.97
2018-08-06T13:43:59.931Z,1.20
2018-08-06T13:46:28.330Z,1.40
2018-08-06T13:48:56.706Z,1.20
2018-08-06T13:51:25.103Z,1.37
2018-08-06T13:53:53.480Z,1.00
2018-08-06T13:56:21.898Z,1.20
2018-08-06T13:58:50.283Z,1.20
2018-08-06T14:01:18.686Z,1.30
2018-08-06T14:03:47.070Z,1.50
2018-08-06T14:06:15.499Z,1.77
2018-08-06T14:08:43.871Z,1.10
2018-08-06T14:11:12.325Z,1.20
2018-08-06T14:13:40.703Z,1.27
2018-08-06T14:16:09.090Z,1.47
2018-08-06T14:18:37.527Z,1.37
2018-08-06T14:21:05.909Z,1.50
2018-08-06T14:23:34.317Z,1.00
2018-08-06T14:26:02.775Z,1.00
2018-08-06T14:28:31.130Z,1.10
2018-08-06T14:30:59.519Z,1.20
2018-08-06T14:33:27.914Z,1.70
2018-08-06T14:35:56.286Z,1.53
2018-08-06T14:38:24.699Z,1.00
2018-08-06T14:40:53.075Z,1.43
2018-08-06T14:43:21.471Z,1.13
2018-08-06T14:45:49.854Z,1.27
2018-08-06T14:48:18.253Z,1.30
2018-08-06T14:50:46.654Z,1.20
2018-08-06T14:53:15.059Z,1.17
2018-08-06T14:55:43.429Z,1.33
2018-08-06T14:58:11.835Z,1.20
2018-08-06T15:00:40.250Z,1.40
2018-08-06T15:03:08.657Z,1.00
2018-08-06T15:05:37.046Z,1.00
2018-08-06T15:08:05.479Z,1.30
2018-08-06T15:10:33.882Z,0.90
2018-08-06T15:13:02.282Z,0.97
2018-08-06T15:15:30.670Z,1.40
2018-08-06T15:17:59.067Z,0.80
2018-08-06T15:20:27.457Z,1.60
2018-08-06T15:22:55.902Z,0.90
2018-08-06T15:25:24.567Z,1.43
2018-08-06T15:27:53.208Z,1.50
2018-08-06T15:30:21.610Z,1.17
2018-08-06T15:32:50.018Z,1.13
2018-08-06T15:35:18.404Z,1.27
2018-08-06T15:37:46.831Z,0.90
2018-08-06T15:40:17.023Z,1.20
2018-08-06T15:42:45.426Z,1.17
2018-08-06T15:45:14.298Z,1.33
2018-08-06T15:47:43.513Z,1.20
2018-08-06T15:50:13.819Z,1.20
2018-08-06T15:52:42.235Z,0.90
2018-08-06T15:55:10.752Z,1.50
2018-08-06T15:57:39.282Z,1.00
2018-08-06T16:00:10.141Z,1.30
2018-08-06T16:02:38.542Z,1.40
2018-08-06T16:05:07.873Z,1.10
2018-08-06T16:07:36.274Z,1.00
2018-08-06T16:10:05.404Z,1.30
2018-08-06T16:12:33.839Z,1.17
2018-08-06T16:15:02.266Z,1.20
2018-08-06T16:17:30.683Z,1.40
2018-08-06T16:19:59.062Z,1.60
2018-08-06T16:22:27.434Z,1.20
2018-08-06T16:24:55.951Z,1.20
2018-08-06T16:27:24.326Z,1.13
2018-08-06T16:29:52.747Z,1.00
2018-08-06T16:32:21.122Z,1.50
2018-08-06T16:34:49.526Z,1.20
2018-08-06T16:37:17.934Z,1.23
2018-08-06T16:39:46.334Z,1.00
2018-08-06T16:42:14.711Z,1.33
2018-08-06T16:44:43.116Z,1.40
2018-08-06T16:47:11.486Z,1.20
2018-08-06T16:49:39.905Z,1.63
2018-08-06T16:52:08.334Z,1.20
2018-08-06T16:54:36.738Z,1.37
2018-08-06T16:57:05.131Z,1.50
2018-08-06T16:59:33.543Z,1.30
2018-08-06T17:02:01.924Z,1.43
2018-08-06T17:04:30.330Z,1.10
2018-08-06T17:06:58.723Z,1.33
2018-08-06T17:09:27.152Z,1.10
2018-08-06T17:11:55.574Z,0.97
2018-08-06T17:14:23.990Z,1.17
2018-08-06T17:16:53.122Z,1.27
2018-08-06T17:19:21.538Z,1.37
2018-08-06T17:21:49.963Z,1.20
2018-08-06T17:24:18.389Z,1.20
2018-08-06T17:26:46.790Z,1.30
2018-08-06T17:29:15.193Z,1.03
2018-08-06T17:31:43.575Z,1.40
2018-08-06T17:34:11.977Z,1.10
2018-08-06T17:36:40.380Z,1.20
2018-08-06T17:39:10.308Z,1.67
2018-08-06T17:41:38.706Z,1.30
2018-08-06T17:44:07.139Z,1.73
2018-08-06T17:46:35.565Z,1.37
2018-08-06T17:49:04.841Z,1.17
2018-08-06T17:51:33.243Z,1.47
2018-08-06T17:54:01.699Z,1.10
2018-08-06T17:56:30.115Z,1.37
2018-08-06T17:58:58.531Z,1.40
2018-08-06T18:01:26.922Z,1.37
2018-08-06T18:03:55.318Z,1.37
2018-08-06T18:06:23.723Z,1.70
2018-08-06T18:08:52.140Z,1.30
2018-08-06T18:11:20.571Z,1.37
2018-08-06T18:13:49.106Z,1.90
2018-08-06T18:16:17.481Z,2.00
2018-08-06T18:18:45.879Z,5.27
2018-08-06T18:21:14.381Z,1.60
2018-08-06T18:23:42.783Z,1.30
2018-08-06T18:26:11.229Z,1.27
2018-08-06T18:28:39.614Z,1.23
2018-08-06T18:31:08.019Z,1.20
2018-08-06T18:33:36.403Z,1.23
2018-08-06T18:36:04.821Z,1.33
2018-08-06T18:38:33.210Z,1.50
2018-08-06T18:41:01.662Z,1.43
2018-08-06T18:43:30.063Z,2.07
2018-08-06T18:45:58.496Z,2.00
2018-08-06T18:48:26.870Z,3.00
2018-08-06T18:50:55.274Z,3.70
2018-08-06T18:53:23.669Z,3.03
2018-08-06T18:55:52.078Z,3.00
2018-08-06T18:58:20.465Z,2.67
2018-08-06T19:00:48.881Z,2.87
2018-08-06T19:03:17.298Z,2.90
2018-08-06T19:05:45.718Z,2.43
2018-08-06T19:08:14.136Z,2.10
2018-08-06T19:10:42.573Z,2.27
2018-08-06T19:13:16.263Z,2.57
2018-08-06T19:15:44.662Z,3.17
2018-08-06T19:18:18.386Z,3.90
2018-08-06T19:20:46.800Z,4.27
2018-08-06T19:23:15.208Z,3.63
2018-08-06T19:25:43.666Z,3.60
2018-08-06T19:28:12.030Z,2.83
2018-08-06T19:30:45.707Z,3.40
2018-08-06T19:33:14.091Z,2.87
2018-08-06T19:35:42.499Z,2.53
2018-08-06T19:38:10.876Z,2.70
2018-08-06T19:40:39.274Z,2.70
2018-08-06T19:43:13.079Z,3.33
2018-08-06T19:45:41.503Z,3.27
2018-08-06T19:48:09.892Z,4.23
2018-08-06T19:50:40.718Z,4.23
2018-08-06T19:53:09.254Z,4.30
2018-08-06T19:55:43.091Z,3.10
2018-08-06T19:58:11.495Z,2.50
2018-08-06T20:00:39.979Z,3.17
2018-08-06T20:03:08.365Z,2.40
2018-08-06T20:05:36.787Z,2.77
2018-08-06T20:08:05.330Z,2.23
2018-08-06T20:10:33.888Z,2.13
2018-08-06T20:13:02.246Z,2.47
2018-08-06T20:15:30.639Z,2.47
2018-08-06T20:17:59.036Z,1.93
2018-08-06T20:20:27.470Z,2.60
2018-08-06T20:22:55.851Z,2.67
2018-08-06T20:25:24.254Z,2.80
2018-08-06T20:27:52.631Z,2.37
2018-08-06T20:30:22.322Z,2.27
2018-08-06T20:32:50.745Z,2.77
2018-08-06T20:35:19.683Z,2.30
2018-08-06T20:37:48.099Z,2.47
2018-08-06T20:40:16.469Z,2.43
2018-08-06T20:42:45.881Z,3.03
2018-08-06T20:45:15.589Z,3.30
2018-08-06T20:47:44.384Z,3.60
2018-08-06T20:50:15.562Z,4.17
2018-08-06T20:52:44.515Z,4.40
2018-08-06T20:55:12.986Z,3.67
2018-08-06T20:57:41.781Z,3.90
2018-08-06T21:00:17.313Z,3.30
2018-08-06T21:02:46.355Z,2.90
2018-08-06T21:05:14.731Z,3.20
2018-08-06T21:07:43.201Z,2.70
2018-08-06T21:10:13.244Z,3.53
2018-08-06T21:12:41.646Z,2.67
2018-08-06T21:15:11.170Z,3.17
2018-08-06T21:17:39.874Z,2.47
2018-08-06T21:20:09.906Z,2.00
2018-08-06T21:22:38.317Z,1.90
2018-08-06T21:25:07.750Z,2.20
2018-08-06T21:27:36.146Z,2.23
2018-08-06T21:30:06.903Z,2.57
2018-08-06T21:32:35.310Z,2.40
2018-08-06T21:35:03.723Z,2.40
2018-08-06T21:37:32.122Z,2.30
2018-08-06T21:40:00.494Z,2.20
2018-08-06T21:42:28.902Z,2.30
2018-08-06T21:44:57.313Z,2.10
2018-08-06T21:47:25.717Z,2.23
2018-08-06T21:49:54.104Z,2.50
2018-08-06T21:52:22.497Z,2.20
2018-08-06T21:54:50.869Z,3.10
2018-08-06T21:57:19.275Z,3.53
2018-08-06T21:59:47.662Z,2.40
2018-08-06T22:02:16.070Z,2.07
2018-08-06T22:04:44.458Z,2.63
2018-08-06T22:07:12.862Z,2.50
2018-08-06T22:09:41.234Z,3.00
2018-08-06T22:12:09.661Z,3.40
2018-08-06T22:14:38.054Z,2.33
2018-08-06T22:17:06.634Z,2.73
2018-08-06T22:19:35.019Z,3.53
2018-08-06T22:22:03.414Z,3.73
2018-08-06T22:24:31.798Z,2.50
2018-08-06T22:27:00.199Z,3.00
2018-08-06T22:29:28.578Z,2.80
2018-08-06T22:31:56.994Z,3.30
2018-08-06T22:34:25.415Z,2.93
2018-08-06T22:36:53.822Z,2.90
2018-08-06T22:39:22.196Z,2.77
2018-08-06T22:41:50.603Z,2.00
2018-08-06T22:44:18.986Z,2.63
2018-08-06T22:46:47.363Z,3.20
2018-08-06T22:49:15.766Z,2.90
2018-08-06T22:51:44.134Z,2.90
2018-08-06T22:54:12.547Z,3.20
2018-08-06T22:56:40.925Z,2.90
2018-08-06T22:59:09.326Z,2.90
2018-08-06T23:01:37.702Z,2.83
2018-08-06T23:04:06.129Z,2.77
2018-08-06T23:06:34.530Z,2.53
2018-08-06T23:09:02.968Z,2.20
2018-08-06T23:11:31.366Z,3.27
2018-08-06T23:13:59.771Z,3.03
2018-08-06T23:16:28.142Z,2.93
2018-08-06T23:18:56.540Z,2.80
2018-08-06T23:21:24.918Z,2.77
2018-08-06T23:23:53.315Z,2.43
2018-08-06T23:26:21.707Z,2.80
2018-08-06T23:28:50.101Z,2.73
2018-08-06T23:31:18.479Z,2.87
2018-08-06T23:33:46.879Z,2.10
2018-08-06T23:36:15.258Z,2.43
2018-08-06T23:38:43.655Z,2.60
2018-08-06T23:41:12.027Z,2.77
2018-08-06T23:43:40.446Z,2.73
2018-08-06T23:46:08.809Z,2.60
2018-08-06T23:48:37.214Z,2.87
2018-08-06T23:51:05.727Z,2.83
2018-08-06T23:53:34.171Z,3.23
2018-08-06T23:56:02.543Z,2.93
2018-08-06T23:58:30.942Z,2.90
